sensor_id;sensor_type;location;lat;lon;timestamp;P1;durP1;ratioP1;P2;durP2;ratioP2
67602;SDS011;54417;47.454;18.918;2023-08-21T00:02:52;18.23;;;14.52;;
67602;SDS011;54417;47.454;18.918;2023-08-21T00:08:18;19.75;;;13.00;;
67602;SDS011;54417;47.454;18.918;2023-08-21T00:13:42;21.13;;;14.27;;
67602;SDS011;54417;47.454;18.918;2023-08-21T00:19:07;17.55;;;11.57;;
67602;SDS011;54417;47.454;18.918;2023-08-21T00:24:32;14.50;;;12.95;;
67602;SDS011;54417;47.454;18.918;2023-08-21T00:29:57;15.45;;;12.38;;
67602;SDS011;54417;47.454;18.918;2023-08-21T00:35:21;13.70;;;12.13;;
67602;SDS011;54417;47.454;18.918;2023-08-21T00:40:47;15.88;;;12.77;;
67602;SDS011;54417;47.454;18.918;2023-08-21T00:46:11;12.77;;;11.48;;
67602;SDS011;54417;47.454;18.918;2023-08-21T00:51:35;17.52;;;12.35;;
67602;SDS011;54417;47.454;18.918;2023-08-21T00:57:00;13.90;;;12.52;;
67602;SDS011;54417;47.454;18.918;2023-08-21T01:02:24;16.63;;;11.85;;
67602;SDS011;54417;47.454;18.918;2023-08-21T01:07:50;16.95;;;13.00;;
67602;SDS011;54417;47.454;18.918;2023-08-21T01:13:23;17.45;;;13.25;;
67602;SDS011;54417;47.454;18.918;2023-08-21T01:18:58;15.85;;;13.00;;
67602;SDS011;54417;47.454;18.918;2023-08-21T01:24:25;14.52;;;12.85;;
67602;SDS011;54417;47.454;18.918;2023-08-21T01:29:49;16.52;;;13.68;;
67602;SDS011;54417;47.454;18.918;2023-08-21T01:35:13;16.88;;;13.30;;
67602;SDS011;54417;47.454;18.918;2023-08-21T01:40:39;17.23;;;13.32;;
67602;SDS011;54417;47.454;18.918;2023-08-21T01:46:03;17.10;;;14.02;;
67602;SDS011;54417;47.454;18.918;2023-08-21T01:51:28;15.52;;;13.73;;
67602;SDS011;54417;47.454;18.918;2023-08-21T01:56:54;16.40;;;13.13;;
67602;SDS011;54417;47.454;18.918;2023-08-21T02:02:18;21.70;;;14.50;;
67602;SDS011;54417;47.454;18.918;2023-08-21T02:07:41;16.60;;;13.43;;
67602;SDS011;54417;47.454;18.918;2023-08-21T02:13:07;15.80;;;13.82;;
67602;SDS011;54417;47.454;18.918;2023-08-21T02:18:30;16.67;;;14.43;;
67602;SDS011;54417;47.454;18.918;2023-08-21T02:23:54;21.63;;;13.32;;
67602;SDS011;54417;47.454;18.918;2023-08-21T02:29:19;18.70;;;14.15;;
67602;SDS011;54417;47.454;18.918;2023-08-21T02:34:43;15.25;;;13.65;;
67602;SDS011;54417;47.454;18.918;2023-08-21T02:40:09;19.55;;;14.77;;
67602;SDS011;54417;47.454;18.918;2023-08-21T02:45:35;15.55;;;13.40;;
67602;SDS011;54417;47.454;18.918;2023-08-21T02:50:59;14.15;;;12.65;;
67602;SDS011;54417;47.454;18.918;2023-08-21T02:56:27;17.27;;;13.40;;
67602;SDS011;54417;47.454;18.918;2023-08-21T03:01:52;23.90;;;14.82;;
67602;SDS011;54417;47.454;18.918;2023-08-21T03:07:16;14.68;;;13.18;;
67602;SDS011;54417;47.454;18.918;2023-08-21T03:12:41;14.45;;;13.05;;
67602;SDS011;54417;47.454;18.918;2023-08-21T03:18:06;19.23;;;12.80;;
67602;SDS011;54417;47.454;18.918;2023-08-21T03:23:30;21.75;;;15.18;;
67602;SDS011;54417;47.454;18.918;2023-08-21T03:28:54;20.27;;;14.27;;
67602;SDS011;54417;47.454;18.918;2023-08-21T03:34:19;16.73;;;14.57;;
67602;SDS011;54417;47.454;18.918;2023-08-21T03:39:46;20.05;;;15.23;;
67602;SDS011;54417;47.454;18.918;2023-08-21T03:45:11;16.02;;;14.38;;
67602;SDS011;54417;47.454;18.918;2023-08-21T03:50:36;18.05;;;14.55;;
67602;SDS011;54417;47.454;18.918;2023-08-21T03:56:00;22.85;;;15.27;;
67602;SDS011;54417;47.454;18.918;2023-08-21T04:01:24;22.15;;;15.13;;
67602;SDS011;54417;47.454;18.918;2023-08-21T04:06:49;19.83;;;14.75;;
67602;SDS011;54417;47.454;18.918;2023-08-21T04:12:13;23.75;;;16.05;;
67602;SDS011;54417;47.454;18.918;2023-08-21T04:17:36;16.20;;;14.48;;
67602;SDS011;54417;47.454;18.918;2023-08-21T04:23:02;25.20;;;14.90;;
67602;SDS011;54417;47.454;18.918;2023-08-21T04:28:26;18.20;;;13.98;;
67602;SDS011;54417;47.454;18.918;2023-08-21T04:33:50;18.20;;;14.43;;
67602;SDS011;54417;47.454;18.918;2023-08-21T04:39:16;24.20;;;14.27;;
67602;SDS011;54417;47.454;18.918;2023-08-21T04:44:41;19.27;;;12.60;;
67602;SDS011;54417;47.454;18.918;2023-08-21T04:50:06;16.73;;;13.10;;
67602;SDS011;54417;47.454;18.918;2023-08-21T04:55:32;17.20;;;13.98;;
67602;SDS011;54417;47.454;18.918;2023-08-21T05:00:56;15.32;;;12.60;;
67602;SDS011;54417;47.454;18.918;2023-08-21T05:06:23;13.23;;;11.82;;
67602;SDS011;54417;47.454;18.918;2023-08-21T05:11:48;19.52;;;12.00;;
67602;SDS011;54417;47.454;18.918;2023-08-21T05:17:13;14.07;;;11.10;;
67602;SDS011;54417;47.454;18.918;2023-08-21T05:22:36;16.95;;;12.68;;
67602;SDS011;54417;47.454;18.918;2023-08-21T05:28:02;15.32;;;11.15;;
67602;SDS011;54417;47.454;18.918;2023-08-21T05:33:26;16.23;;;11.43;;
67602;SDS011;54417;47.454;18.918;2023-08-21T05:38:50;14.70;;;10.10;;
67602;SDS011;54417;47.454;18.918;2023-08-21T05:44:16;15.57;;;9.63;;
67602;SDS011;54417;47.454;18.918;2023-08-21T05:49:40;10.82;;;9.52;;
67602;SDS011;54417;47.454;18.918;2023-08-21T05:55:05;15.23;;;9.68;;
67602;SDS011;54417;47.454;18.918;2023-08-21T06:00:32;15.07;;;9.68;;
67602;SDS011;54417;47.454;18.918;2023-08-21T06:06:00;14.57;;;9.55;;
67602;SDS011;54417;47.454;18.918;2023-08-21T06:11:24;11.70;;;8.52;;
67602;SDS011;54417;47.454;18.918;2023-08-21T06:16:49;11.10;;;9.57;;
67602;SDS011;54417;47.454;18.918;2023-08-21T06:22:13;22.77;;;10.20;;
67602;SDS011;54417;47.454;18.918;2023-08-21T06:27:37;13.88;;;9.50;;
67602;SDS011;54417;47.454;18.918;2023-08-21T06:33:19;14.93;;;9.38;;
67602;SDS011;54417;47.454;18.918;2023-08-21T06:38:42;11.40;;;8.35;;
67602;SDS011;54417;47.454;18.918;2023-08-21T06:44:07;9.73;;;8.45;;
67602;SDS011;54417;47.454;18.918;2023-08-21T06:49:32;10.13;;;9.13;;
67602;SDS011;54417;47.454;18.918;2023-08-21T06:54:56;10.48;;;8.73;;
67602;SDS011;54417;47.454;18.918;2023-08-21T07:00:20;14.63;;;8.77;;
67602;SDS011;54417;47.454;18.918;2023-08-21T07:05:49;11.82;;;8.65;;
67602;SDS011;54417;47.454;18.918;2023-08-21T07:11:17;15.25;;;9.07;;
67602;SDS011;54417;47.454;18.918;2023-08-21T07:16:41;10.77;;;7.97;;
67602;SDS011;54417;47.454;18.918;2023-08-21T07:22:06;10.02;;;8.48;;
67602;SDS011;54417;47.454;18.918;2023-08-21T07:27:30;13.02;;;8.18;;
67602;SDS011;54417;47.454;18.918;2023-08-21T07:32:54;9.40;;;8.50;;
67602;SDS011;54417;47.454;18.918;2023-08-21T07:38:19;13.10;;;8.43;;
67602;SDS011;54417;47.454;18.918;2023-08-21T07:43:43;12.38;;;7.68;;
67602;SDS011;54417;47.454;18.918;2023-08-21T07:49:07;12.75;;;8.13;;
67602;SDS011;54417;47.454;18.918;2023-08-21T07:54:33;9.18;;;8.27;;
67602;SDS011;54417;47.454;18.918;2023-08-21T07:59:57;8.68;;;7.72;;
67602;SDS011;54417;47.454;18.918;2023-08-21T08:05:21;9.15;;;8.20;;
67602;SDS011;54417;47.454;18.918;2023-08-21T08:10:46;8.20;;;7.40;;
67602;SDS011;54417;47.454;18.918;2023-08-21T08:16:10;9.13;;;7.93;;
67602;SDS011;54417;47.454;18.918;2023-08-21T08:21:34;10.38;;;8.13;;
67602;SDS011;54417;47.454;18.918;2023-08-21T08:27:00;9.80;;;8.32;;
67602;SDS011;54417;47.454;18.918;2023-08-21T08:32:24;10.43;;;7.80;;
67602;SDS011;54417;47.454;18.918;2023-08-21T08:37:48;8.90;;;7.43;;
67602;SDS011;54417;47.454;18.918;2023-08-21T08:43:14;8.75;;;7.85;;
67602;SDS011;54417;47.454;18.918;2023-08-21T08:48:38;10.05;;;7.25;;
67602;SDS011;54417;47.454;18.918;2023-08-21T08:54:02;10.95;;;7.38;;
67602;SDS011;54417;47.454;18.918;2023-08-21T08:59:29;7.93;;;7.22;;
67602;SDS011;54417;47.454;18.918;2023-08-21T09:04:53;8.90;;;7.60;;
67602;SDS011;54417;47.454;18.918;2023-08-21T09:10:17;8.88;;;7.93;;
67602;SDS011;54417;47.454;18.918;2023-08-21T09:15:43;8.63;;;7.63;;
67602;SDS011;54417;47.454;18.918;2023-08-21T09:21:09;8.98;;;8.07;;
67602;SDS011;54417;47.454;18.918;2023-08-21T09:26:33;9.90;;;7.97;;
67602;SDS011;54417;47.454;18.918;2023-08-21T09:31:59;8.90;;;7.40;;
67602;SDS011;54417;47.454;18.918;2023-08-21T09:37:25;7.57;;;6.82;;
67602;SDS011;54417;47.454;18.918;2023-08-21T09:42:52;8.00;;;7.20;;
67602;SDS011;54417;47.454;18.918;2023-08-21T09:48:18;9.82;;;7.32;;
67602;SDS011;54417;47.454;18.918;2023-08-21T09:53:43;8.57;;;7.28;;
67602;SDS011;54417;47.454;18.918;2023-08-21T09:59:08;13.35;;;7.63;;
67602;SDS011;54417;47.454;18.918;2023-08-21T10:04:33;8.55;;;7.53;;
67602;SDS011;54417;47.454;18.918;2023-08-21T10:09:58;10.32;;;7.88;;
67602;SDS011;54417;47.454;18.918;2023-08-21T10:15:22;8.05;;;7.25;;
67602;SDS011;54417;47.454;18.918;2023-08-21T10:20:48;7.78;;;7.03;;
67602;SDS011;54417;47.454;18.918;2023-08-21T10:26:11;10.95;;;7.50;;
67602;SDS011;54417;47.454;18.918;2023-08-21T10:31:38;8.35;;;7.38;;
67602;SDS011;54417;47.454;18.918;2023-08-21T10:37:07;7.50;;;6.80;;
67602;SDS011;54417;47.454;18.918;2023-08-21T10:42:38;9.40;;;7.57;;
67602;SDS011;54417;47.454;18.918;2023-08-21T10:48:04;11.02;;;7.60;;
67602;SDS011;54417;47.454;18.918;2023-08-21T10:53:29;9.65;;;7.55;;
67602;SDS011;54417;47.454;18.918;2023-08-21T10:58:55;10.00;;;7.47;;
67602;SDS011;54417;47.454;18.918;2023-08-21T11:04:19;10.50;;;7.43;;
67602;SDS011;54417;47.454;18.918;2023-08-21T11:09:44;7.65;;;6.90;;
67602;SDS011;54417;47.454;18.918;2023-08-21T11:15:08;11.38;;;7.60;;
67602;SDS011;54417;47.454;18.918;2023-08-21T11:20:35;7.50;;;6.88;;
67602;SDS011;54417;47.454;18.918;2023-08-21T11:26:00;7.28;;;6.60;;
67602;SDS011;54417;47.454;18.918;2023-08-21T11:31:42;7.68;;;6.97;;
67602;SDS011;54417;47.454;18.918;2023-08-21T11:37:09;8.43;;;6.73;;
67602;SDS011;54417;47.454;18.918;2023-08-21T11:42:35;6.82;;;6.10;;
67602;SDS011;54417;47.454;18.918;2023-08-21T11:47:59;7.47;;;6.78;;
67602;SDS011;54417;47.454;18.918;2023-08-21T11:53:32;7.47;;;6.72;;
67602;SDS011;54417;47.454;18.918;2023-08-21T11:58:59;8.73;;;6.50;;
67602;SDS011;54417;47.454;18.918;2023-08-21T12:04:23;10.95;;;5.60;;
67602;SDS011;54417;47.454;18.918;2023-08-21T12:09:47;7.00;;;6.15;;
67602;SDS011;54417;47.454;18.918;2023-08-21T12:15:13;11.25;;;6.25;;
67602;SDS011;54417;47.454;18.918;2023-08-21T12:20:37;7.50;;;6.28;;
67602;SDS011;54417;47.454;18.918;2023-08-21T12:26:01;7.18;;;6.25;;
67602;SDS011;54417;47.454;18.918;2023-08-21T12:31:26;7.05;;;6.35;;
67602;SDS011;54417;47.454;18.918;2023-08-21T12:36:50;7.72;;;6.88;;
67602;SDS011;54417;47.454;18.918;2023-08-21T12:42:14;10.65;;;6.47;;
67602;SDS011;54417;47.454;18.918;2023-08-21T12:47:40;10.13;;;6.60;;
67602;SDS011;54417;47.454;18.918;2023-08-21T12:53:04;7.50;;;6.80;;
67602;SDS011;54417;47.454;18.918;2023-08-21T12:58:28;7.57;;;6.80;;
67602;SDS011;54417;47.454;18.918;2023-08-21T13:03:53;7.07;;;6.47;;
67602;SDS011;54417;47.454;18.918;2023-08-21T13:09:17;5.95;;;5.40;;
67602;SDS011;54417;47.454;18.918;2023-08-21T13:14:41;10.15;;;6.70;;
67602;SDS011;54417;47.454;18.918;2023-08-21T13:20:07;6.85;;;6.15;;
67602;SDS011;54417;47.454;18.918;2023-08-21T13:25:33;10.40;;;6.53;;
67602;SDS011;54417;47.454;18.918;2023-08-21T13:30:57;9.02;;;6.55;;
67602;SDS011;54417;47.454;18.918;2023-08-21T13:36:22;7.13;;;6.43;;
67602;SDS011;54417;47.454;18.918;2023-08-21T13:41:47;8.75;;;7.00;;
67602;SDS011;54417;47.454;18.918;2023-08-21T13:47:12;8.73;;;6.55;;
67602;SDS011;54417;47.454;18.918;2023-08-21T13:52:37;7.60;;;6.80;;
67602;SDS011;54417;47.454;18.918;2023-08-21T13:58:02;7.13;;;6.53;;
67602;SDS011;54417;47.454;18.918;2023-08-21T14:03:26;7.75;;;7.00;;
67602;SDS011;54417;47.454;18.918;2023-08-21T14:08:51;7.53;;;6.85;;
67602;SDS011;54417;47.454;18.918;2023-08-21T14:14:15;7.60;;;6.50;;
67602;SDS011;54417;47.454;18.918;2023-08-21T14:19:39;7.70;;;7.00;;
67602;SDS011;54417;47.454;18.918;2023-08-21T14:25:04;7.47;;;6.80;;
67602;SDS011;54417;47.454;18.918;2023-08-21T14:30:28;7.13;;;6.47;;
67602;SDS011;54417;47.454;18.918;2023-08-21T14:35:52;7.72;;;6.45;;
67602;SDS011;54417;47.454;18.918;2023-08-21T14:41:18;9.52;;;6.40;;
67602;SDS011;54417;47.454;18.918;2023-08-21T14:46:42;7.78;;;6.10;;
67602;SDS011;54417;47.454;18.918;2023-08-21T14:52:06;7.65;;;6.13;;
67602;SDS011;54417;47.454;18.918;2023-08-21T14:57:31;7.88;;;6.38;;
67602;SDS011;54417;47.454;18.918;2023-08-21T15:02:55;7.20;;;6.05;;
67602;SDS011;54417;47.454;18.918;2023-08-21T15:08:19;6.95;;;6.25;;
67602;SDS011;54417;47.454;18.918;2023-08-21T15:13:44;7.38;;;6.68;;
67602;SDS011;54417;47.454;18.918;2023-08-21T15:19:08;7.35;;;6.68;;
67602;SDS011;54417;47.454;18.918;2023-08-21T15:24:32;8.38;;;6.53;;
67602;SDS011;54417;47.454;18.918;2023-08-21T15:29:57;8.90;;;5.95;;
67602;SDS011;54417;47.454;18.918;2023-08-21T15:35:21;7.45;;;5.88;;
67602;SDS011;54417;47.454;18.918;2023-08-21T15:40:45;7.60;;;6.10;;
67602;SDS011;54417;47.454;18.918;2023-08-21T15:46:10;8.18;;;5.20;;
67602;SDS011;54417;47.454;18.918;2023-08-21T15:51:34;6.57;;;5.03;;
67602;SDS011;54417;47.454;18.918;2023-08-21T15:56:58;8.27;;;6.10;;
67602;SDS011;54417;47.454;18.918;2023-08-21T16:02:24;6.10;;;5.60;;
67602;SDS011;54417;47.454;18.918;2023-08-21T16:07:48;10.02;;;6.28;;
67602;SDS011;54417;47.454;18.918;2023-08-21T16:13:12;13.10;;;6.38;;
67602;SDS011;54417;47.454;18.918;2023-08-21T16:18:37;7.07;;;6.38;;
67602;SDS011;54417;47.454;18.918;2023-08-21T16:24:01;7.40;;;6.47;;
67602;SDS011;54417;47.454;18.918;2023-08-21T16:29:25;7.15;;;6.30;;
67602;SDS011;54417;47.454;18.918;2023-08-21T16:34:50;7.95;;;6.72;;
67602;SDS011;54417;47.454;18.918;2023-08-21T16:40:14;8.45;;;6.70;;
67602;SDS011;54417;47.454;18.918;2023-08-21T16:45:38;10.93;;;7.53;;
67602;SDS011;54417;47.454;18.918;2023-08-21T16:51:03;9.75;;;7.18;;
67602;SDS011;54417;47.454;18.918;2023-08-21T16:56:27;9.13;;;8.23;;
67602;SDS011;54417;47.454;18.918;2023-08-21T17:01:51;11.23;;;9.68;;
67602;SDS011;54417;47.454;18.918;2023-08-21T17:07:16;11.73;;;8.27;;
67602;SDS011;54417;47.454;18.918;2023-08-21T17:12:41;8.93;;;7.80;;
67602;SDS011;54417;47.454;18.918;2023-08-21T17:18:04;10.02;;;7.85;;
67602;SDS011;54417;47.454;18.918;2023-08-21T17:23:30;10.15;;;8.88;;
67602;SDS011;54417;47.454;18.918;2023-08-21T17:28:54;9.65;;;8.43;;
67602;SDS011;54417;47.454;18.918;2023-08-21T17:34:18;12.98;;;8.90;;
67602;SDS011;54417;47.454;18.918;2023-08-21T17:39:43;9.07;;;7.78;;
67602;SDS011;54417;47.454;18.918;2023-08-21T17:45:08;10.82;;;9.35;;
67602;SDS011;54417;47.454;18.918;2023-08-21T17:50:32;15.52;;;9.98;;
67602;SDS011;54417;47.454;18.918;2023-08-21T17:56:00;12.45;;;9.63;;
67602;SDS011;54417;47.454;18.918;2023-08-21T18:01:27;12.80;;;10.23;;
67602;SDS011;54417;47.454;18.918;2023-08-21T18:06:51;20.10;;;10.93;;
67602;SDS011;54417;47.454;18.918;2023-08-21T18:12:16;21.48;;;11.27;;
67602;SDS011;54417;47.454;18.918;2023-08-21T18:17:40;12.55;;;11.15;;
67602;SDS011;54417;47.454;18.918;2023-08-21T18:23:04;14.75;;;10.48;;
67602;SDS011;54417;47.454;18.918;2023-08-21T18:28:30;12.30;;;11.00;;
67602;SDS011;54417;47.454;18.918;2023-08-21T18:33:54;12.65;;;11.05;;
67602;SDS011;54417;47.454;18.918;2023-08-21T18:39:17;12.68;;;11.43;;
67602;SDS011;54417;47.454;18.918;2023-08-21T18:44:43;13.50;;;11.70;;
67602;SDS011;54417;47.454;18.918;2023-08-21T18:50:07;13.73;;;11.02;;
67602;SDS011;54417;47.454;18.918;2023-08-21T18:55:34;13.40;;;10.80;;
67602;SDS011;54417;47.454;18.918;2023-08-21T19:01:00;17.02;;;11.60;;
67602;SDS011;54417;47.454;18.918;2023-08-21T19:06:24;13.65;;;12.25;;
67602;SDS011;54417;47.454;18.918;2023-08-21T19:11:48;16.75;;;12.45;;
67602;SDS011;54417;47.454;18.918;2023-08-21T19:17:15;18.63;;;13.27;;
67602;SDS011;54417;47.454;18.918;2023-08-21T19:22:39;19.75;;;12.80;;
67602;SDS011;54417;47.454;18.918;2023-08-21T19:28:03;15.20;;;12.32;;
67602;SDS011;54417;47.454;18.918;2023-08-21T19:33:29;14.45;;;12.65;;
67602;SDS011;54417;47.454;18.918;2023-08-21T19:38:54;14.95;;;12.38;;
67602;SDS011;54417;47.454;18.918;2023-08-21T19:44:17;13.65;;;12.35;;
67602;SDS011;54417;47.454;18.918;2023-08-21T19:49:43;17.67;;;12.90;;
67602;SDS011;54417;47.454;18.918;2023-08-21T19:55:07;16.38;;;12.68;;
67602;SDS011;54417;47.454;18.918;2023-08-21T20:00:31;13.60;;;12.20;;
67602;SDS011;54417;47.454;18.918;2023-08-21T20:06:05;15.45;;;13.68;;
67602;SDS011;54417;47.454;18.918;2023-08-21T20:11:30;16.38;;;14.60;;
67602;SDS011;54417;47.454;18.918;2023-08-21T20:16:54;16.92;;;14.05;;
67602;SDS011;54417;47.454;18.918;2023-08-21T20:22:19;19.65;;;14.68;;
67602;SDS011;54417;47.454;18.918;2023-08-21T20:27:43;20.38;;;14.65;;
67602;SDS011;54417;47.454;18.918;2023-08-21T20:33:06;17.25;;;13.80;;
67602;SDS011;54417;47.454;18.918;2023-08-21T20:38:32;14.95;;;13.45;;
67602;SDS011;54417;47.454;18.918;2023-08-21T20:43:56;17.25;;;13.90;;
67602;SDS011;54417;47.454;18.918;2023-08-21T20:49:20;16.77;;;14.20;;
67602;SDS011;54417;47.454;18.918;2023-08-21T20:54:45;14.40;;;12.90;;
67602;SDS011;54417;47.454;18.918;2023-08-21T21:00:09;15.80;;;13.82;;
67602;SDS011;54417;47.454;18.918;2023-08-21T21:05:33;14.60;;;13.18;;
67602;SDS011;54417;47.454;18.918;2023-08-21T21:11:00;18.67;;;13.70;;
67602;SDS011;54417;47.454;18.918;2023-08-21T21:16:23;23.35;;;14.40;;
67602;SDS011;54417;47.454;18.918;2023-08-21T21:21:49;16.42;;;14.65;;
67602;SDS011;54417;47.454;18.918;2023-08-21T21:27:17;15.15;;;13.57;;
67602;SDS011;54417;47.454;18.918;2023-08-21T21:32:41;18.13;;;14.00;;
67602;SDS011;54417;47.454;18.918;2023-08-21T21:38:05;15.60;;;13.70;;
67602;SDS011;54417;47.454;18.918;2023-08-21T21:43:30;15.07;;;13.32;;
67602;SDS011;54417;47.454;18.918;2023-08-21T21:48:55;18.98;;;14.57;;
67602;SDS011;54417;47.454;18.918;2023-08-21T21:54:20;16.70;;;13.45;;
67602;SDS011;54417;47.454;18.918;2023-08-21T21:59:45;15.07;;;12.98;;
67602;SDS011;54417;47.454;18.918;2023-08-21T22:05:09;15.27;;;13.68;;
67602;SDS011;54417;47.454;18.918;2023-08-21T22:10:33;15.98;;;13.35;;
67602;SDS011;54417;47.454;18.918;2023-08-21T22:15:58;14.73;;;12.98;;
67602;SDS011;54417;47.454;18.918;2023-08-21T22:21:22;18.58;;;13.57;;
67602;SDS011;54417;47.454;18.918;2023-08-21T22:26:46;16.58;;;13.50;;
67602;SDS011;54417;47.454;18.918;2023-08-21T22:32:11;16.13;;;12.95;;
67602;SDS011;54417;47.454;18.918;2023-08-21T22:37:35;16.65;;;12.98;;
67602;SDS011;54417;47.454;18.918;2023-08-21T22:42:59;14.88;;;13.15;;
67602;SDS011;54417;47.454;18.918;2023-08-21T22:48:25;15.18;;;13.57;;
67602;SDS011;54417;47.454;18.918;2023-08-21T22:53:48;16.00;;;13.35;;
67602;SDS011;54417;47.454;18.918;2023-08-21T22:59:12;16.10;;;14.23;;
67602;SDS011;54417;47.454;18.918;2023-08-21T23:04:38;16.55;;;13.88;;
67602;SDS011;54417;47.454;18.918;2023-08-21T23:10:02;14.23;;;12.18;;
67602;SDS011;54417;47.454;18.918;2023-08-21T23:15:26;15.75;;;13.32;;
67602;SDS011;54417;47.454;18.918;2023-08-21T23:20:58;17.48;;;13.25;;
67602;SDS011;54417;47.454;18.918;2023-08-21T23:26:23;17.25;;;14.15;;
67602;SDS011;54417;47.454;18.918;2023-08-21T23:31:46;17.15;;;14.00;;
67602;SDS011;54417;47.454;18.918;2023-08-21T23:37:12;15.35;;;13.57;;
67602;SDS011;54417;47.454;18.918;2023-08-21T23:42:35;15.88;;;13.20;;
67602;SDS011;54417;47.454;18.918;2023-08-21T23:47:59;19.58;;;13.60;;
67602;SDS011;54417;47.454;18.918;2023-08-21T23:53:25;16.42;;;13.27;;
67602;SDS011;54417;47.454;18.918;2023-08-21T23:58:49;17.33;;;13.27;;
